メインページ
METAR-TAF:

METAR-TAF

空港 :

広島空港

広島, 日本

緯度: 34-26N, 経度: 132-55E, 海抜: 331m

現時点の気象観測

当レポートは22分前の09:49(UTC)に作成
南東の風 3kt
気温 15°C
湿度 100%
気圧 1007 hPa
視程: 1500m
高度100ft以下の雲はほとんどない
高度200ftの雲は散在している
高度2000ftの千切れ雲あり
部分的に霧に覆われる, 靄

METAR: RJOA 240949Z 14003KT 1500 R10/0750VP2000D PRFG BR FEW000 SCT002 BKN020 15/15 Q1007 RMK 1ST000 3ST002 5CU020 A2975 FG SE-W

時間: 19:11 (10:11 UTC)

予報

当レポートは4時間3分前の06:08(UTC)に作成
予報は24日の 06時(UTC)から 25日の 12時(UTC)まで有効
南西の風 4kt
視程: 1500m
高度100ft以下の雲はほとんどない
高度300ftの雲は散在している
高度700ftの千切れ雲あり
靄, 散在霧
24日の 06時(UTC)から 24日の 09時(UTC)まで一時的に
視程: 0200m
高度100ftの
24日の 09時(UTC)から 24日の 12時(UTC)まで一時的に
視程: 0500m
高度100ft以下の雲はほとんどない
高度100ftの雲は散在している
高度300ftの千切れ雲あり
24日の 12時(UTC)から 24日の 14時(UTC)まで徐々に
視程10km以上
高度500ftの雲はほとんどない
高度2000ftの雲は散在している

TAF: RJOA 240608Z 2406/2512 22004KT 1500 BR BCFG FEW000 SCT003 BKN007 TEMPO 2406/2409 0200 FG VV001 TEMPO 2409/2412 0500 FG FEW000 SCT001 BKN003 BECMG 2412/2414 9999 NSW FEW005 SCT020

4,000以上の空港の気象観測と天気予報(METAR報とTAF報)

利用可能な観測所は地図上に黄色い丸と赤い丸で示す。

丸の上にカーソルを重ねると観測所名を参照できる。

次にクリックすると気象観測と天気予報を参照できる。

マップの切り替え:黒色「×」印の緑ボタンをクリックして拡大、「-」印の緑ボタンをクリックして縮小、緑色の三角印をクリックして隣りの地図に切り替え


METAR-TAF: